sensor_id;sensor_type;location;lat;lon;timestamp;P1;durP1;ratioP1;P2;durP2;ratioP2
14048;SDS011;7099;53.922;10.728;2024-02-21T00:01:37;32.33;;;15.87;;
14048;SDS011;7099;53.922;10.728;2024-02-21T00:05:42;35.20;;;15.73;;
14048;SDS011;7099;53.922;10.728;2024-02-21T00:09:48;32.27;;;14.80;;
14048;SDS011;7099;53.922;10.728;2024-02-21T00:13:54;31.20;;;15.40;;
14048;SDS011;7099;53.922;10.728;2024-02-21T00:17:59;37.03;;;15.00;;
14048;SDS011;7099;53.922;10.728;2024-02-21T00:22:05;39.17;;;15.97;;
14048;SDS011;7099;53.922;10.728;2024-02-21T00:26:11;35.13;;;15.73;;
14048;SDS011;7099;53.922;10.728;2024-02-21T00:30:18;40.90;;;17.50;;
14048;SDS011;7099;53.922;10.728;2024-02-21T00:34:23;30.67;;;15.90;;
14048;SDS011;7099;53.922;10.728;2024-02-21T00:38:29;33.70;;;15.50;;
14048;SDS011;7099;53.922;10.728;2024-02-21T00:42:35;33.50;;;15.13;;
14048;SDS011;7099;53.922;10.728;2024-02-21T00:46:41;37.23;;;17.43;;
14048;SDS011;7099;53.922;10.728;2024-02-21T00:50:46;32.87;;;15.10;;
14048;SDS011;7099;53.922;10.728;2024-02-21T00:54:52;33.07;;;16.83;;
14048;SDS011;7099;53.922;10.728;2024-02-21T00:58:59;33.27;;;15.70;;
14048;SDS011;7099;53.922;10.728;2024-02-21T01:03:04;34.70;;;15.20;;
14048;SDS011;7099;53.922;10.728;2024-02-21T01:07:10;30.27;;;15.73;;
14048;SDS011;7099;53.922;10.728;2024-02-21T01:11:15;33.07;;;15.27;;
14048;SDS011;7099;53.922;10.728;2024-02-21T01:15:21;33.50;;;15.20;;
14048;SDS011;7099;53.922;10.728;2024-02-21T01:19:27;24.83;;;14.77;;
14048;SDS011;7099;53.922;10.728;2024-02-21T01:23:33;34.57;;;15.53;;
14048;SDS011;7099;53.922;10.728;2024-02-21T01:27:39;26.80;;;14.13;;
14048;SDS011;7099;53.922;10.728;2024-02-21T01:31:45;32.60;;;14.07;;
14048;SDS011;7099;53.922;10.728;2024-02-21T01:35:52;32.00;;;15.47;;
14048;SDS011;7099;53.922;10.728;2024-02-21T01:39:58;26.37;;;14.90;;
14048;SDS011;7099;53.922;10.728;2024-02-21T01:44:03;28.80;;;14.30;;
14048;SDS011;7099;53.922;10.728;2024-02-21T01:48:09;36.70;;;16.50;;
14048;SDS011;7099;53.922;10.728;2024-02-21T01:52:15;30.93;;;15.87;;
14048;SDS011;7099;53.922;10.728;2024-02-21T01:56:22;31.50;;;15.83;;
14048;SDS011;7099;53.922;10.728;2024-02-21T02:00:28;34.77;;;17.10;;
14048;SDS011;7099;53.922;10.728;2024-02-21T02:04:34;38.53;;;18.17;;
14048;SDS011;7099;53.922;10.728;2024-02-21T02:08:40;30.03;;;16.57;;
14048;SDS011;7099;53.922;10.728;2024-02-21T02:12:46;31.57;;;17.47;;
14048;SDS011;7099;53.922;10.728;2024-02-21T02:16:52;34.77;;;15.20;;
14048;SDS011;7099;53.922;10.728;2024-02-21T02:20:57;31.47;;;16.60;;
14048;SDS011;7099;53.922;10.728;2024-02-21T02:25:04;30.83;;;15.60;;
14048;SDS011;7099;53.922;10.728;2024-02-21T02:29:10;29.20;;;17.27;;
14048;SDS011;7099;53.922;10.728;2024-02-21T02:33:16;25.60;;;15.17;;
14048;SDS011;7099;53.922;10.728;2024-02-21T02:37:24;28.43;;;15.37;;
14048;SDS011;7099;53.922;10.728;2024-02-21T02:41:30;26.27;;;14.37;;
14048;SDS011;7099;53.922;10.728;2024-02-21T02:45:35;26.03;;;16.00;;
14048;SDS011;7099;53.922;10.728;2024-02-21T02:49:41;24.10;;;13.40;;
14048;SDS011;7099;53.922;10.728;2024-02-21T02:53:47;25.60;;;13.57;;
14048;SDS011;7099;53.922;10.728;2024-02-21T02:57:53;23.73;;;11.70;;
14048;SDS011;7099;53.922;10.728;2024-02-21T03:01:58;30.20;;;12.40;;
14048;SDS011;7099;53.922;10.728;2024-02-21T03:06:04;22.40;;;12.37;;
14048;SDS011;7099;53.922;10.728;2024-02-21T03:10:11;22.90;;;13.53;;
14048;SDS011;7099;53.922;10.728;2024-02-21T03:14:18;23.73;;;12.07;;
14048;SDS011;7099;53.922;10.728;2024-02-21T03:18:23;20.17;;;12.60;;
14048;SDS011;7099;53.922;10.728;2024-02-21T03:22:29;15.10;;;9.33;;
14048;SDS011;7099;53.922;10.728;2024-02-21T03:26:34;20.13;;;12.10;;
14048;SDS011;7099;53.922;10.728;2024-02-21T03:30:40;24.93;;;13.00;;
14048;SDS011;7099;53.922;10.728;2024-02-21T03:34:45;18.23;;;11.30;;
14048;SDS011;7099;53.922;10.728;2024-02-21T03:38:51;30.17;;;11.50;;
14048;SDS011;7099;53.922;10.728;2024-02-21T03:42:56;20.20;;;12.13;;
14048;SDS011;7099;53.922;10.728;2024-02-21T03:47:02;22.00;;;12.50;;
14048;SDS011;7099;53.922;10.728;2024-02-21T03:51:07;20.33;;;12.33;;
14048;SDS011;7099;53.922;10.728;2024-02-21T03:55:13;20.67;;;11.73;;
14048;SDS011;7099;53.922;10.728;2024-02-21T03:59:19;27.37;;;13.20;;
14048;SDS011;7099;53.922;10.728;2024-02-21T04:03:24;37.10;;;12.93;;
14048;SDS011;7099;53.922;10.728;2024-02-21T04:07:30;20.97;;;12.20;;
14048;SDS011;7099;53.922;10.728;2024-02-21T04:11:35;22.10;;;12.90;;
14048;SDS011;7099;53.922;10.728;2024-02-21T04:15:41;26.47;;;12.80;;
14048;SDS011;7099;53.922;10.728;2024-02-21T04:19:46;22.83;;;11.53;;
14048;SDS011;7099;53.922;10.728;2024-02-21T04:23:52;24.83;;;13.30;;
14048;SDS011;7099;53.922;10.728;2024-02-21T04:27:58;20.40;;;12.30;;
14048;SDS011;7099;53.922;10.728;2024-02-21T04:32:03;18.67;;;12.30;;
14048;SDS011;7099;53.922;10.728;2024-02-21T04:36:10;25.27;;;10.60;;
14048;SDS011;7099;53.922;10.728;2024-02-21T04:40:15;21.13;;;11.47;;
14048;SDS011;7099;53.922;10.728;2024-02-21T04:44:22;24.17;;;10.30;;
14048;SDS011;7099;53.922;10.728;2024-02-21T04:48:27;19.03;;;10.87;;
14048;SDS011;7099;53.922;10.728;2024-02-21T04:52:33;22.97;;;11.23;;
14048;SDS011;7099;53.922;10.728;2024-02-21T04:56:39;16.10;;;9.90;;
14048;SDS011;7099;53.922;10.728;2024-02-21T05:00:44;20.37;;;9.67;;
14048;SDS011;7099;53.922;10.728;2024-02-21T05:04:50;21.53;;;11.17;;
14048;SDS011;7099;53.922;10.728;2024-02-21T05:08:56;26.93;;;10.73;;
14048;SDS011;7099;53.922;10.728;2024-02-21T05:13:02;23.23;;;10.87;;
14048;SDS011;7099;53.922;10.728;2024-02-21T05:17:09;22.30;;;9.77;;
14048;SDS011;7099;53.922;10.728;2024-02-21T05:21:14;19.03;;;9.17;;
14048;SDS011;7099;53.922;10.728;2024-02-21T05:25:20;13.67;;;7.87;;
14048;SDS011;7099;53.922;10.728;2024-02-21T05:29:26;13.63;;;8.37;;
14048;SDS011;7099;53.922;10.728;2024-02-21T05:33:31;10.53;;;6.90;;
14048;SDS011;7099;53.922;10.728;2024-02-21T05:37:37;13.70;;;6.87;;
14048;SDS011;7099;53.922;10.728;2024-02-21T05:41:43;5.60;;;3.57;;
14048;SDS011;7099;53.922;10.728;2024-02-21T05:45:49;6.17;;;2.00;;
14048;SDS011;7099;53.922;10.728;2024-02-21T05:49:54;1.70;;;1.40;;
14048;SDS011;7099;53.922;10.728;2024-02-21T05:54:00;2.60;;;1.23;;
14048;SDS011;7099;53.922;10.728;2024-02-21T05:58:06;3.80;;;1.47;;
14048;SDS011;7099;53.922;10.728;2024-02-21T06:02:14;10.20;;;1.70;;
14048;SDS011;7099;53.922;10.728;2024-02-21T06:06:20;2.40;;;0.90;;
14048;SDS011;7099;53.922;10.728;2024-02-21T06:10:27;2.70;;;1.10;;
14048;SDS011;7099;53.922;10.728;2024-02-21T06:14:32;5.87;;;1.23;;
14048;SDS011;7099;53.922;10.728;2024-02-21T06:18:38;4.10;;;1.30;;
14048;SDS011;7099;53.922;10.728;2024-02-21T06:22:44;5.63;;;1.17;;
14048;SDS011;7099;53.922;10.728;2024-02-21T06:26:49;2.47;;;0.97;;
14048;SDS011;7099;53.922;10.728;2024-02-21T06:30:55;5.60;;;1.30;;
14048;SDS011;7099;53.922;10.728;2024-02-21T06:35:01;4.20;;;1.40;;
14048;SDS011;7099;53.922;10.728;2024-02-21T06:39:07;7.17;;;1.50;;
14048;SDS011;7099;53.922;10.728;2024-02-21T06:43:12;6.80;;;1.70;;
14048;SDS011;7099;53.922;10.728;2024-02-21T06:47:18;3.50;;;1.40;;
14048;SDS011;7099;53.922;10.728;2024-02-21T06:51:24;2.60;;;1.53;;
14048;SDS011;7099;53.922;10.728;2024-02-21T06:55:30;4.20;;;1.50;;
14048;SDS011;7099;53.922;10.728;2024-02-21T06:59:38;5.60;;;1.33;;
14048;SDS011;7099;53.922;10.728;2024-02-21T07:03:43;4.10;;;1.57;;
14048;SDS011;7099;53.922;10.728;2024-02-21T07:07:49;5.87;;;1.67;;
14048;SDS011;7099;53.922;10.728;2024-02-21T07:11:54;2.83;;;1.40;;
14048;SDS011;7099;53.922;10.728;2024-02-21T07:16:01;9.23;;;1.97;;
14048;SDS011;7099;53.922;10.728;2024-02-21T07:20:07;2.63;;;1.47;;
14048;SDS011;7099;53.922;10.728;2024-02-21T07:24:13;5.27;;;1.50;;
14048;SDS011;7099;53.922;10.728;2024-02-21T07:28:19;8.50;;;2.83;;
14048;SDS011;7099;53.922;10.728;2024-02-21T07:32:24;8.30;;;1.50;;
14048;SDS011;7099;53.922;10.728;2024-02-21T07:36:31;7.50;;;1.63;;
14048;SDS011;7099;53.922;10.728;2024-02-21T07:40:36;6.97;;;1.63;;
14048;SDS011;7099;53.922;10.728;2024-02-21T07:44:42;3.07;;;1.50;;
14048;SDS011;7099;53.922;10.728;2024-02-21T07:48:47;6.67;;;1.90;;
14048;SDS011;7099;53.922;10.728;2024-02-21T07:52:53;5.03;;;1.83;;
14048;SDS011;7099;53.922;10.728;2024-02-21T07:56:59;7.60;;;2.13;;
14048;SDS011;7099;53.922;10.728;2024-02-21T08:01:05;6.20;;;1.70;;
14048;SDS011;7099;53.922;10.728;2024-02-21T08:05:10;10.47;;;1.67;;
14048;SDS011;7099;53.922;10.728;2024-02-21T08:09:17;5.23;;;2.10;;
14048;SDS011;7099;53.922;10.728;2024-02-21T08:13:23;4.23;;;2.03;;
14048;SDS011;7099;53.922;10.728;2024-02-21T08:17:29;10.40;;;2.27;;
14048;SDS011;7099;53.922;10.728;2024-02-21T08:21:34;5.90;;;1.87;;
14048;SDS011;7099;53.922;10.728;2024-02-21T08:25:39;7.20;;;1.93;;
14048;SDS011;7099;53.922;10.728;2024-02-21T08:29:45;5.20;;;2.20;;
14048;SDS011;7099;53.922;10.728;2024-02-21T08:33:51;9.70;;;2.60;;
14048;SDS011;7099;53.922;10.728;2024-02-21T08:37:56;11.53;;;2.40;;
14048;SDS011;7099;53.922;10.728;2024-02-21T08:42:02;6.13;;;2.33;;
14048;SDS011;7099;53.922;10.728;2024-02-21T08:46:08;8.90;;;2.20;;
14048;SDS011;7099;53.922;10.728;2024-02-21T08:50:13;14.93;;;3.63;;
14048;SDS011;7099;53.922;10.728;2024-02-21T08:54:32;13.00;;;2.77;;
14048;SDS011;7099;53.922;10.728;2024-02-21T08:58:39;10.60;;;2.50;;
14048;SDS011;7099;53.922;10.728;2024-02-21T09:02:45;9.30;;;2.07;;
14048;SDS011;7099;53.922;10.728;2024-02-21T09:06:51;13.93;;;3.10;;
14048;SDS011;7099;53.922;10.728;2024-02-21T09:10:57;8.83;;;2.40;;
14048;SDS011;7099;53.922;10.728;2024-02-21T09:15:04;13.10;;;3.27;;
14048;SDS011;7099;53.922;10.728;2024-02-21T09:19:10;13.00;;;3.67;;
14048;SDS011;7099;53.922;10.728;2024-02-21T09:23:16;15.53;;;3.10;;
14048;SDS011;7099;53.922;10.728;2024-02-21T09:27:22;17.40;;;3.20;;
14048;SDS011;7099;53.922;10.728;2024-02-21T09:31:27;11.87;;;3.20;;
14048;SDS011;7099;53.922;10.728;2024-02-21T09:35:33;15.93;;;3.27;;
14048;SDS011;7099;53.922;10.728;2024-02-21T09:39:39;13.13;;;2.87;;
14048;SDS011;7099;53.922;10.728;2024-02-21T09:43:46;13.00;;;3.53;;
14048;SDS011;7099;53.922;10.728;2024-02-21T09:52:15;14.23;;;2.70;;
14048;SDS011;7099;53.922;10.728;2024-02-21T09:56:22;8.67;;;2.87;;
14048;SDS011;7099;53.922;10.728;2024-02-21T10:00:27;13.70;;;2.60;;
14048;SDS011;7099;53.922;10.728;2024-02-21T10:04:33;12.17;;;3.30;;
14048;SDS011;7099;53.922;10.728;2024-02-21T10:08:39;12.80;;;2.80;;
14048;SDS011;7099;53.922;10.728;2024-02-21T10:12:51;7.70;;;2.00;;
14048;SDS011;7099;53.922;10.728;2024-02-21T10:16:59;13.30;;;3.10;;
14048;SDS011;7099;53.922;10.728;2024-02-21T10:21:05;15.80;;;3.00;;
14048;SDS011;7099;53.922;10.728;2024-02-21T10:37:30;9.13;;;2.37;;
14048;SDS011;7099;53.922;10.728;2024-02-21T10:41:36;15.37;;;3.10;;
14048;SDS011;7099;53.922;10.728;2024-02-21T10:45:43;8.37;;;1.97;;
14048;SDS011;7099;53.922;10.728;2024-02-21T10:49:49;8.27;;;2.13;;
14048;SDS011;7099;53.922;10.728;2024-02-21T10:54:56;13.93;;;2.50;;
14048;SDS011;7099;53.922;10.728;2024-02-21T10:58:37;14.50;;;3.20;;
14048;SDS011;7099;53.922;10.728;2024-02-21T11:02:47;12.80;;;2.53;;
14048;SDS011;7099;53.922;10.728;2024-02-21T11:06:54;19.50;;;3.00;;
14048;SDS011;7099;53.922;10.728;2024-02-21T11:11:00;11.73;;;2.30;;
14048;SDS011;7099;53.922;10.728;2024-02-21T11:15:06;17.87;;;2.77;;
14048;SDS011;7099;53.922;10.728;2024-02-21T11:19:21;13.20;;;2.73;;
14048;SDS011;7099;53.922;10.728;2024-02-21T11:23:30;11.43;;;2.57;;
14048;SDS011;7099;53.922;10.728;2024-02-21T11:27:36;16.53;;;3.13;;
14048;SDS011;7099;53.922;10.728;2024-02-21T11:31:44;17.27;;;3.30;;
14048;SDS011;7099;53.922;10.728;2024-02-21T11:35:50;11.90;;;2.90;;
14048;SDS011;7099;53.922;10.728;2024-02-21T11:39:58;12.57;;;3.13;;
14048;SDS011;7099;53.922;10.728;2024-02-21T11:44:03;12.53;;;2.80;;
14048;SDS011;7099;53.922;10.728;2024-02-21T11:48:09;7.53;;;2.40;;
14048;SDS011;7099;53.922;10.728;2024-02-21T11:52:14;6.50;;;1.70;;
14048;SDS011;7099;53.922;10.728;2024-02-21T11:56:21;11.07;;;2.50;;
14048;SDS011;7099;53.922;10.728;2024-02-21T12:00:27;7.53;;;1.90;;
14048;SDS011;7099;53.922;10.728;2024-02-21T12:04:33;2.70;;;1.63;;
14048;SDS011;7099;53.922;10.728;2024-02-21T12:08:43;8.87;;;3.07;;
14048;SDS011;7099;53.922;10.728;2024-02-21T12:12:49;7.60;;;2.57;;
14048;SDS011;7099;53.922;10.728;2024-02-21T12:16:57;8.70;;;2.77;;
14048;SDS011;7099;53.922;10.728;2024-02-21T12:21:04;5.57;;;2.60;;
14048;SDS011;7099;53.922;10.728;2024-02-21T12:25:16;7.27;;;2.87;;
14048;SDS011;7099;53.922;10.728;2024-02-21T12:29:30;9.00;;;3.10;;
14048;SDS011;7099;53.922;10.728;2024-02-21T12:33:36;7.40;;;3.33;;
14048;SDS011;7099;53.922;10.728;2024-02-21T12:37:41;8.30;;;3.87;;
14048;SDS011;7099;53.922;10.728;2024-02-21T12:41:47;10.20;;;4.20;;
14048;SDS011;7099;53.922;10.728;2024-02-21T12:45:53;9.60;;;6.30;;
14048;SDS011;7099;53.922;10.728;2024-02-21T12:49:58;9.67;;;7.10;;
14048;SDS011;7099;53.922;10.728;2024-02-21T12:54:04;13.40;;;9.07;;
14048;SDS011;7099;53.922;10.728;2024-02-21T12:58:10;16.10;;;9.70;;
14048;SDS011;7099;53.922;10.728;2024-02-21T13:02:15;13.53;;;9.60;;
14048;SDS011;7099;53.922;10.728;2024-02-21T13:06:21;14.20;;;10.13;;
14048;SDS011;7099;53.922;10.728;2024-02-21T13:10:27;15.43;;;10.47;;
14048;SDS011;7099;53.922;10.728;2024-02-21T13:14:32;14.83;;;8.40;;
14048;SDS011;7099;53.922;10.728;2024-02-21T13:18:39;14.47;;;8.43;;
14048;SDS011;7099;53.922;10.728;2024-02-21T13:22:48;15.67;;;8.67;;
14048;SDS011;7099;53.922;10.728;2024-02-21T13:26:53;13.70;;;7.17;;
14048;SDS011;7099;53.922;10.728;2024-02-21T13:30:59;11.90;;;7.80;;
14048;SDS011;7099;53.922;10.728;2024-02-21T13:35:04;11.03;;;7.53;;
14048;SDS011;7099;53.922;10.728;2024-02-21T13:39:10;12.10;;;7.87;;
14048;SDS011;7099;53.922;10.728;2024-02-21T13:43:20;12.57;;;7.70;;
14048;SDS011;7099;53.922;10.728;2024-02-21T13:47:26;15.23;;;8.80;;
14048;SDS011;7099;53.922;10.728;2024-02-21T13:51:32;21.60;;;9.73;;
14048;SDS011;7099;53.922;10.728;2024-02-21T13:55:41;13.10;;;8.30;;
14048;SDS011;7099;53.922;10.728;2024-02-21T13:59:48;20.40;;;8.40;;
14048;SDS011;7099;53.922;10.728;2024-02-21T14:03:54;14.97;;;6.40;;
14048;SDS011;7099;53.922;10.728;2024-02-21T14:07:59;12.07;;;7.83;;
14048;SDS011;7099;53.922;10.728;2024-02-21T14:12:07;11.73;;;8.47;;
14048;SDS011;7099;53.922;10.728;2024-02-21T14:16:15;17.90;;;8.60;;
14048;SDS011;7099;53.922;10.728;2024-02-21T14:20:20;15.07;;;8.77;;
14048;SDS011;7099;53.922;10.728;2024-02-21T14:24:26;14.57;;;9.20;;
14048;SDS011;7099;53.922;10.728;2024-02-21T14:28:32;17.03;;;8.50;;
14048;SDS011;7099;53.922;10.728;2024-02-21T14:32:41;17.03;;;8.87;;
14048;SDS011;7099;53.922;10.728;2024-02-21T14:36:49;17.27;;;9.33;;
14048;SDS011;7099;53.922;10.728;2024-02-21T14:40:55;18.20;;;9.53;;
14048;SDS011;7099;53.922;10.728;2024-02-21T14:45:01;19.63;;;10.20;;
14048;SDS011;7099;53.922;10.728;2024-02-21T14:49:10;20.80;;;9.97;;
14048;SDS011;7099;53.922;10.728;2024-02-21T14:53:16;14.67;;;10.43;;
14048;SDS011;7099;53.922;10.728;2024-02-21T14:57:23;20.13;;;10.33;;
14048;SDS011;7099;53.922;10.728;2024-02-21T15:01:29;16.93;;;9.27;;
14048;SDS011;7099;53.922;10.728;2024-02-21T15:05:42;19.33;;;8.77;;
14048;SDS011;7099;53.922;10.728;2024-02-21T15:09:48;13.30;;;8.47;;
14048;SDS011;7099;53.922;10.728;2024-02-21T15:13:55;20.03;;;8.87;;
14048;SDS011;7099;53.922;10.728;2024-02-21T15:18:00;12.87;;;8.53;;
14048;SDS011;7099;53.922;10.728;2024-02-21T15:22:06;16.20;;;8.73;;
14048;SDS011;7099;53.922;10.728;2024-02-21T15:26:12;18.10;;;8.70;;
14048;SDS011;7099;53.922;10.728;2024-02-21T15:30:18;12.73;;;8.03;;
14048;SDS011;7099;53.922;10.728;2024-02-21T15:34:24;18.87;;;9.03;;
14048;SDS011;7099;53.922;10.728;2024-02-21T15:38:30;17.37;;;9.37;;
14048;SDS011;7099;53.922;10.728;2024-02-21T15:42:35;19.57;;;9.07;;
14048;SDS011;7099;53.922;10.728;2024-02-21T15:46:41;22.13;;;9.77;;
14048;SDS011;7099;53.922;10.728;2024-02-21T15:50:47;16.77;;;8.50;;
14048;SDS011;7099;53.922;10.728;2024-02-21T15:54:53;16.50;;;8.93;;
14048;SDS011;7099;53.922;10.728;2024-02-21T15:58:58;15.60;;;9.07;;
14048;SDS011;7099;53.922;10.728;2024-02-21T16:03:04;14.00;;;9.27;;
14048;SDS011;7099;53.922;10.728;2024-02-21T16:07:09;18.37;;;9.23;;
14048;SDS011;7099;53.922;10.728;2024-02-21T16:11:15;15.00;;;9.40;;
14048;SDS011;7099;53.922;10.728;2024-02-21T16:15:22;11.60;;;8.50;;
14048;SDS011;7099;53.922;10.728;2024-02-21T16:19:28;17.70;;;9.40;;
14048;SDS011;7099;53.922;10.728;2024-02-21T16:23:34;16.90;;;8.47;;
14048;SDS011;7099;53.922;10.728;2024-02-21T16:27:40;12.73;;;7.77;;
14048;SDS011;7099;53.922;10.728;2024-02-21T16:31:46;18.00;;;8.67;;
14048;SDS011;7099;53.922;10.728;2024-02-21T16:35:52;15.70;;;8.30;;
14048;SDS011;7099;53.922;10.728;2024-02-21T16:39:59;19.30;;;7.80;;
14048;SDS011;7099;53.922;10.728;2024-02-21T16:44:05;15.80;;;8.23;;
14048;SDS011;7099;53.922;10.728;2024-02-21T16:48:11;15.60;;;7.83;;
14048;SDS011;7099;53.922;10.728;2024-02-21T16:52:17;16.70;;;7.90;;
14048;SDS011;7099;53.922;10.728;2024-02-21T16:56:23;16.87;;;9.13;;
14048;SDS011;7099;53.922;10.728;2024-02-21T17:00:29;18.87;;;8.57;;
14048;SDS011;7099;53.922;10.728;2024-02-21T17:04:34;14.30;;;7.97;;
14048;SDS011;7099;53.922;10.728;2024-02-21T17:08:40;13.93;;;7.47;;
14048;SDS011;7099;53.922;10.728;2024-02-21T17:12:46;17.73;;;6.97;;
14048;SDS011;7099;53.922;10.728;2024-02-21T17:16:52;12.00;;;6.97;;
14048;SDS011;7099;53.922;10.728;2024-02-21T17:21:00;16.53;;;6.83;;
14048;SDS011;7099;53.922;10.728;2024-02-21T17:25:06;10.50;;;5.20;;
14048;SDS011;7099;53.922;10.728;2024-02-21T17:29:15;11.53;;;5.07;;
14048;SDS011;7099;53.922;10.728;2024-02-21T17:33:20;12.10;;;5.43;;
14048;SDS011;7099;53.922;10.728;2024-02-21T17:37:26;6.57;;;4.80;;
14048;SDS011;7099;53.922;10.728;2024-02-21T17:41:32;13.57;;;4.83;;
14048;SDS011;7099;53.922;10.728;2024-02-21T17:45:37;12.27;;;4.90;;
14048;SDS011;7099;53.922;10.728;2024-02-21T17:49:44;8.90;;;4.67;;
14048;SDS011;7099;53.922;10.728;2024-02-21T17:53:52;14.80;;;4.50;;
14048;SDS011;7099;53.922;10.728;2024-02-21T17:57:57;8.30;;;4.60;;
14048;SDS011;7099;53.922;10.728;2024-02-21T18:02:03;7.30;;;3.67;;
14048;SDS011;7099;53.922;10.728;2024-02-21T18:06:09;10.37;;;3.83;;
14048;SDS011;7099;53.922;10.728;2024-02-21T18:10:14;6.93;;;3.60;;
14048;SDS011;7099;53.922;10.728;2024-02-21T18:14:20;11.20;;;4.00;;
14048;SDS011;7099;53.922;10.728;2024-02-21T18:18:26;8.03;;;3.40;;
14048;SDS011;7099;53.922;10.728;2024-02-21T18:22:31;6.93;;;3.40;;
14048;SDS011;7099;53.922;10.728;2024-02-21T18:26:37;9.33;;;3.60;;
14048;SDS011;7099;53.922;10.728;2024-02-21T18:30:43;6.80;;;3.17;;
14048;SDS011;7099;53.922;10.728;2024-02-21T18:34:50;7.90;;;3.20;;
14048;SDS011;7099;53.922;10.728;2024-02-21T18:38:56;9.80;;;3.50;;
14048;SDS011;7099;53.922;10.728;2024-02-21T18:43:01;6.60;;;3.35;;
14048;SDS011;7099;53.922;10.728;2024-02-21T18:47:07;4.67;;;3.00;;
14048;SDS011;7099;53.922;10.728;2024-02-21T18:51:13;6.20;;;3.50;;
14048;SDS011;7099;53.922;10.728;2024-02-21T18:55:20;7.57;;;4.30;;
14048;SDS011;7099;53.922;10.728;2024-02-21T18:59:25;10.70;;;3.70;;
14048;SDS011;7099;53.922;10.728;2024-02-21T19:03:32;4.13;;;2.80;;
14048;SDS011;7099;53.922;10.728;2024-02-21T19:07:38;5.47;;;3.10;;
14048;SDS011;7099;53.922;10.728;2024-02-21T19:11:43;10.53;;;3.60;;
14048;SDS011;7099;53.922;10.728;2024-02-21T19:15:49;8.20;;;3.50;;
14048;SDS011;7099;53.922;10.728;2024-02-21T19:19:54;9.33;;;3.80;;
14048;SDS011;7099;53.922;10.728;2024-02-21T19:24:00;6.97;;;3.90;;
14048;SDS011;7099;53.922;10.728;2024-02-21T19:28:05;4.83;;;2.70;;
14048;SDS011;7099;53.922;10.728;2024-02-21T19:32:11;8.77;;;3.70;;
14048;SDS011;7099;53.922;10.728;2024-02-21T19:36:17;8.37;;;3.47;;
14048;SDS011;7099;53.922;10.728;2024-02-21T19:40:24;8.53;;;3.43;;
14048;SDS011;7099;53.922;10.728;2024-02-21T19:44:30;10.90;;;3.93;;
14048;SDS011;7099;53.922;10.728;2024-02-21T19:48:36;7.67;;;3.93;;
14048;SDS011;7099;53.922;10.728;2024-02-21T19:52:42;7.70;;;4.43;;
14048;SDS011;7099;53.922;10.728;2024-02-21T19:56:47;7.13;;;3.77;;
14048;SDS011;7099;53.922;10.728;2024-02-21T20:00:53;5.27;;;3.60;;
14048;SDS011;7099;53.922;10.728;2024-02-21T20:04:58;7.17;;;3.27;;
14048;SDS011;7099;53.922;10.728;2024-02-21T20:09:04;8.60;;;4.20;;
14048;SDS011;7099;53.922;10.728;2024-02-21T20:13:16;7.93;;;4.10;;
14048;SDS011;7099;53.922;10.728;2024-02-21T20:17:22;6.67;;;4.00;;
14048;SDS011;7099;53.922;10.728;2024-02-21T20:21:28;8.70;;;3.73;;
14048;SDS011;7099;53.922;10.728;2024-02-21T20:25:33;10.30;;;3.90;;
14048;SDS011;7099;53.922;10.728;2024-02-21T20:29:39;9.10;;;3.90;;
14048;SDS011;7099;53.922;10.728;2024-02-21T20:33:45;7.20;;;3.87;;
14048;SDS011;7099;53.922;10.728;2024-02-21T20:37:51;8.93;;;3.80;;
14048;SDS011;7099;53.922;10.728;2024-02-21T20:54:14;9.07;;;3.60;;
14048;SDS011;7099;53.922;10.728;2024-02-21T20:58:20;6.17;;;3.67;;
14048;SDS011;7099;53.922;10.728;2024-02-21T21:02:25;9.83;;;3.50;;
14048;SDS011;7099;53.922;10.728;2024-02-21T21:06:31;8.13;;;3.70;;
14048;SDS011;7099;53.922;10.728;2024-02-21T21:10:36;10.67;;;3.87;;
14048;SDS011;7099;53.922;10.728;2024-02-21T21:14:42;13.35;;;3.40;;
14048;SDS011;7099;53.922;10.728;2024-02-21T23:17:44;6.60;;;3.20;;
14048;SDS011;7099;53.922;10.728;2024-02-21T23:21:49;6.07;;;2.93;;
14048;SDS011;7099;53.922;10.728;2024-02-21T23:25:55;10.40;;;3.17;;
14048;SDS011;7099;53.922;10.728;2024-02-21T23:30:00;6.40;;;3.23;;
14048;SDS011;7099;53.922;10.728;2024-02-21T23:34:06;6.43;;;3.00;;
14048;SDS011;7099;53.922;10.728;2024-02-21T23:38:11;7.90;;;3.03;;
14048;SDS011;7099;53.922;10.728;2024-02-21T23:42:17;7.27;;;3.00;;
14048;SDS011;7099;53.922;10.728;2024-02-21T23:46:22;6.17;;;2.70;;
14048;SDS011;7099;53.922;10.728;2024-02-21T23:50:29;8.00;;;2.80;;
14048;SDS011;7099;53.922;10.728;2024-02-21T23:54:34;9.70;;;3.13;;
14048;SDS011;7099;53.922;10.728;2024-02-21T23:58:40;7.33;;;3.07;;
